首页
METAR-TAF:

METAR-TAF

机场 :

Ukiah Municipal Airport

Ukiah, 加利福尼亚州, 美国

纬度: 39-07-33N, 经度: 123-12-03W, 海拔: 187米

当前天气观测

该预报发布于19分钟前的23:56 UTC
风速6节,风向西北
温度 24°C
湿度 44%
气压 1012 hPa
能見度: 16.1公里
天空无云

METAR: KUKI 182356Z AUTO 31006KT 10SM CLR 24/11 A2989 RMK AO2 SLP116 T02440106 10278 20200 55006

时间: 17:15 (00:15 UTC)

预报

该预报发布于43分钟前的23:32 UTC
预报有效从19日的 00点(UTC)到 19日的 24点(UTC)
风速8节,风向西转西北
能見度: 10公里
天空无云
从 19日的 0200点(UTC)
风速3节,风向多变
能見度: 10公里
天空无云
从 19日的 1900点(UTC)
风速6节,风向西
能見度: 10公里
天空无云

TAF: KUKI 182332Z 1900/1924 29008KT P6SM SKC FM190200 VRB03KT P6SM SKC FM191900 27006KT P6SM SKC

超过4000个机场的气象观测和天气预报(METAR&TAF报告)。

可查询的气象台以黄色和红色小点在地图上表示。

将鼠标移到小点上方,可查看气象台名称。

然后点击查看天气观测和预报。

如需切换地图:点击带黑十字的绿色按钮放大地图;点击带横线的绿色按钮缩小地图;或者点击绿色箭头查看邻近地区的地图。


METAR-TAF: